Time;durP1;ratioP1;P1;durP2;ratioP2;P2;SDS_P1;SDS_P2;PMS_P1;PMS_P2;Temp;Humidity;BMP_temperature;BMP_pressure;BME280_temperature;BME280_humidity;BME280_pressure;Samples;Min_cycle;Max_cycle;Signal;HPM_P1;HPM_P2
2021/08/04 00:00:04;;;;;;;14.98;12.00;;;;;;;16.74;75.75;100009.00;5051843;28;20486;-65
2021/08/04 00:02:31;;;;;;;16.02;12.07;;;;;;;16.78;75.57;100012.72;5052034;28;20053;-65
2021/08/04 00:04:58;;;;;;;13.93;11.10;;;;;;;16.79;75.66;100007.91;5051995;28;20060;-65
2021/08/04 00:07:26;;;;;;;14.82;11.65;;;;;;;16.80;75.32;100010.38;5051671;28;20060;-65
2021/08/04 00:09:54;;;;;;;12.57;10.65;;;;;;;16.85;74.90;100012.09;5051769;28;20075;-65
2021/08/04 00:12:22;;;;;;;13.60;10.88;;;;;;;16.78;74.38;100018.34;5052098;28;20410;-65
2021/08/04 00:14:49;;;;;;;15.50;11.07;;;;;;;16.75;74.30;100010.63;5051940;28;20049;-65
2021/08/04 00:17:17;;;;;;;13.93;11.70;;;;;;;16.71;74.42;100017.34;5051425;28;20505;-65
2021/08/04 00:19:44;;;;;;;14.13;11.05;;;;;;;16.71;74.63;100020.16;5052911;28;20053;-65
2021/08/04 00:22:11;;;;;;;13.73;11.30;;;;;;;16.71;74.51;100009.72;5055609;28;20053;-65
2021/08/04 00:24:39;;;;;;;16.02;12.45;;;;;;;16.70;74.66;100015.75;5055970;28;20053;-65
2021/08/04 00:27:07;;;;;;;17.42;12.88;;;;;;;16.63;74.78;100011.59;5055382;28;20053;-65
2021/08/04 00:29:35;;;;;;;22.40;14.00;;;;;;;16.67;74.79;100016.47;5055730;28;20505;-65
2021/08/04 00:32:02;;;;;;;32.50;13.95;;;;;;;16.62;74.73;100009.13;5055444;28;20967;-65
2021/08/04 00:34:30;;;;;;;22.83;14.23;;;;;;;16.53;75.07;100012.16;5056108;28;20053;-65
2021/08/04 00:36:57;;;;;;;30.05;14.55;;;;;;;16.48;75.12;100009.59;5055378;28;20053;-65
2021/08/04 00:39:24;;;;;;;17.98;13.35;;;;;;;16.34;75.57;100006.47;5055860;28;20059;-65
2021/08/04 00:41:52;;;;;;;19.77;14.40;;;;;;;16.32;75.36;100003.22;5055557;28;20053;-65
2021/08/04 00:44:21;;;;;;;18.73;14.10;;;;;;;16.28;75.37;100005.13;5055495;28;20069;-65
2021/08/04 00:46:48;;;;;;;18.02;13.82;;;;;;;16.22;75.18;100002.56;5055603;28;20075;-65
2021/08/04 00:49:16;;;;;;;18.98;13.43;;;;;;;16.17;75.79;100005.69;5055707;28;20417;-65
2021/08/04 00:51:43;;;;;;;19.80;14.55;;;;;;;16.14;76.00;100011.19;5055206;28;20060;-65
2021/08/04 00:54:11;;;;;;;27.60;14.85;;;;;;;15.87;77.14;100007.31;5055143;28;20056;-65
2021/08/04 00:56:39;;;;;;;36.13;16.13;;;;;;;15.93;76.96;100011.47;5055128;28;20056;-65
2021/08/04 00:59:08;;;;;;;22.08;14.85;;;;;;;15.98;76.90;100005.56;5055147;28;20497;-65
2021/08/04 01:01:42;;;;;;;19.83;13.65;;;;;;;16.02;76.79;100009.28;5054917;28;20406;-65
2021/08/04 01:04:14;;;;;;;17.85;13.05;;;;;;;16.08;76.47;100013.47;5055097;28;20048;-65
2021/08/04 01:06:50;;;;;;;16.15;12.43;;;;;;;16.11;76.32;100007.13;5054847;28;20057;-65
2021/08/04 01:09:20;;;;;;;14.68;11.23;;;;;;;16.13;76.14;100001.16;5054709;28;20057;-65
2021/08/04 01:11:49;;;;;;;;;;;;;;;16.15;75.85;100015.66;5055097;28;20053;-65
2021/08/04 01:14:24;;;;;;;11.10;9.48;;;;;;;16.19;75.80;100014.56;5054866;28;19921;-65
2021/08/04 01:16:53;;;;;;;11.45;9.90;;;;;;;16.17;76.16;100016.91;5054457;28;20159;-65
2021/08/04 01:19:31;;;;;;;11.32;9.75;;;;;;;16.23;75.80;100020.25;5054464;28;20359;-65
2021/08/04 01:22:11;;;;;;;10.45;9.35;;;;;;;16.24;76.15;100014.25;5054963;28;20049;-65
2021/08/04 01:24:41;;;;;;;;;;;;;;;16.27;76.40;100009.91;5054989;28;20075;-65
2021/08/04 01:27:14;;;;;;;11.23;9.07;;;;;;;16.30;76.10;100020.44;5054293;28;19921;-65
2021/08/04 01:29:42;;;;;;;11.32;9.32;;;;;;;16.37;76.08;100026.22;5054748;28;20049;-65
2021/08/04 01:32:11;;;;;;;10.13;8.70;;;;;;;16.45;75.92;100010.34;5054055;28;20045;-65
2021/08/04 01:34:40;;;;;;;12.15;9.15;;;;;;;16.50;75.43;100012.06;5054439;28;20049;-65
2021/08/04 01:37:09;;;;;;;9.48;8.35;;;;;;;16.55;75.30;100014.59;5053970;28;20490;-65
2021/08/04 01:39:38;;;;;;;13.00;9.50;;;;;;;16.51;75.17;100011.69;5054493;28;20053;-65
2021/08/04 01:42:07;;;;;;;12.50;8.73;;;;;;;16.55;74.97;100015.41;5054107;28;20394;-65
2021/08/04 01:44:38;;;;;;;12.40;9.02;;;;;;;16.50;74.72;100006.44;5054374;28;20045;-65
2021/08/04 01:47:07;;;;;;;11.07;8.90;;;;;;;16.55;74.55;100009.78;5053806;28;20069;-65
2021/08/04 01:49:35;;;;;;;12.25;9.07;;;;;;;16.50;74.97;100006.44;5054200;28;20053;-65
2021/08/04 01:52:03;;;;;;;10.88;9.35;;;;;;;16.52;75.04;100004.88;5054352;28;20052;-65
2021/08/04 01:54:31;;;;;;;12.98;10.15;;;;;;;16.61;74.73;100007.50;5054387;28;20049;-65
2021/08/04 01:56:58;;;;;;;10.88;9.50;;;;;;;16.52;74.95;100004.88;5054135;28;20053;-65
2021/08/04 01:59:26;;;;;;;11.55;9.45;;;;;;;16.60;74.85;100001.06;5053995;28;20470;-65
2021/08/04 02:02:14;;;;;;;12.05;9.00;;;;;;;16.64;75.03;100004.75;5054073;28;20053;-65
2021/08/04 02:04:42;;;;;;;11.85;9.50;;;;;;;16.66;75.07;100004.41;5053831;28;20056;-65
2021/08/04 02:07:16;;;;;;;15.80;11.95;;;;;;;16.66;74.83;99998.78;5040633;28;20056;-65
2021/08/04 02:09:49;;;;;;;13.20;10.38;;;;;;;16.68;74.77;100001.22;5043277;28;20052;-65
2021/08/04 02:12:17;;;;;;;11.95;10.52;;;;;;;16.71;74.99;99997.66;5053570;28;20055;-65
2021/08/04 02:14:52;;;;;;;12.73;10.85;;;;;;;16.76;74.83;99994.59;5053486;28;20056;-65
2021/08/04 02:17:23;;;;;;;13.15;10.90;;;;;;;16.75;74.87;99990.13;5053272;28;20049;-65
2021/08/04 02:19:56;;;;;;;12.75;10.50;;;;;;;16.80;75.01;99992.66;5053373;28;20068;-65
2021/08/04 02:22:29;;;;;;;13.10;10.85;;;;;;;16.82;74.81;99987.53;5052983;28;20045;-65
2021/08/04 02:25:07;;;;;;;14.13;10.35;;;;;;;16.83;74.94;99992.75;5053333;28;20053;-65
2021/08/04 02:27:38;;;;;;;14.20;11.02;;;;;;;16.87;74.89;99992.03;5053719;28;20057;-65
2021/08/04 02:30:11;;;;;;;11.65;9.98;;;;;;;16.87;74.54;99984.41;5053075;28;20511;-65
2021/08/04 02:32:40;;;;;;;13.43;10.13;;;;;;;16.90;74.72;99991.28;5053524;28;20055;-65
2021/08/04 02:35:09;;;;;;;11.35;10.15;;;;;;;16.93;74.81;99997.00;5053163;28;20057;-65
2021/08/04 02:37:36;;;;;;;15.85;10.75;;;;;;;16.90;74.84;99992.09;5052869;28;20060;-65
2021/08/04 02:40:06;;;;;;;11.73;9.68;;;;;;;16.94;74.58;99995.78;5053091;28;20132;-65
2021/08/04 02:42:34;;;;;;;14.00;10.70;;;;;;;16.94;74.49;99990.16;5052420;28;20052;-65
2021/08/04 02:45:03;;;;;;;14.27;10.48;;;;;;;16.91;74.49;99993.72;5053312;28;20045;-65
2021/08/04 02:47:32;;;;;;;11.23;10.05;;;;;;;16.93;74.45;99984.94;5053246;28;20056;-65
2021/08/04 02:50:02;;;;;;;11.57;10.05;;;;;;;16.95;74.45;99989.00;5053225;28;20060;-65
2021/08/04 02:52:30;;;;;;;12.18;10.13;;;;;;;16.92;74.16;99970.03;5052598;28;20410;-65
2021/08/04 02:54:58;;;;;;;12.05;10.35;;;;;;;16.93;74.29;99988.56;5052944;28;20049;-65
2021/08/04 02:57:26;;;;;;;13.07;11.05;;;;;;;16.96;73.85;99984.97;5052291;28;20060;-65
2021/08/04 02:59:56;;;;;;;11.00;9.80;;;;;;;16.93;73.63;99982.13;5053678;28;20056;-65
2021/08/04 03:02:26;;;;;;;11.30;10.00;;;;;;;16.92;73.71;99984.09;5052895;28;20049;-64
2021/08/04 03:04:55;;;;;;;;;;;;;;;16.85;74.17;99978.31;5053238;28;20056;-65
2021/08/04 03:07:24;;;;;;;12.48;9.75;;;;;;;16.89;73.93;99989.66;5037772;28;19921;-65
2021/08/04 03:09:51;;;;;;;12.68;9.70;;;;;;;16.84;74.00;99988.78;5032599;28;20056;-65
2021/08/04 03:12:18;;;;;;;11.77;10.02;;;;;;;16.85;74.33;99989.56;5032449;28;20414;-65
2021/08/04 03:14:46;;;;;;;11.20;10.00;;;;;;;16.87;74.23;99986.41;5032763;28;20540;-65
2021/08/04 03:17:13;;;;;;;11.13;9.30;;;;;;;16.87;74.33;99987.22;5032427;28;20475;-65
2021/08/04 03:19:41;;;;;;;12.30;9.95;;;;;;;16.88;74.45;99985.22;5032742;28;20056;-65
2021/08/04 03:22:08;;;;;;;14.75;9.98;;;;;;;16.89;74.61;99984.84;5032409;28;20064;-65
2021/08/04 03:24:37;;;;;;;11.60;9.13;;;;;;;16.89;74.45;99984.03;5032766;28;20064;-65
2021/08/04 03:27:05;;;;;;;11.27;10.07;;;;;;;16.88;74.17;99983.19;5032210;28;20057;-65
2021/08/04 03:29:32;;;;;;;12.48;9.73;;;;;;;16.87;74.08;99987.22;5032721;28;20049;-65
2021/08/04 03:31:59;;;;;;;15.38;10.60;;;;;;;16.84;73.99;99983.16;5032592;28;20475;-65
2021/08/04 03:34:29;;;;;;;12.00;9.25;;;;;;;16.80;73.69;99987.88;5032596;28;20057;-65
2021/08/04 03:36:57;;;;;;;14.15;9.00;;;;;;;16.82;73.86;99981.91;5031897;28;20060;-65
2021/08/04 03:39:24;;;;;;;11.30;8.75;;;;;;;16.83;73.41;99986.31;5032465;28;20418;-65
2021/08/04 03:41:53;;;;;;;9.38;8.00;;;;;;;16.76;73.49;99986.16;5032058;28;20049;-65
2021/08/04 03:44:20;;;;;;;9.55;8.05;;;;;;;16.72;73.33;99986.06;5032367;28;20501;-65
2021/08/04 03:46:48;;;;;;;10.30;8.35;;;;;;;16.69;73.54;99988.78;5032225;28;20076;-65
2021/08/04 03:49:16;;;;;;;12.57;8.88;;;;;;;16.59;73.95;99988.19;5031755;28;20053;-64
2021/08/04 03:51:44;;;;;;;12.15;10.52;;;;;;;16.52;74.23;99993.63;5032528;28;20053;-64
2021/08/04 03:54:12;;;;;;;11.68;10.30;;;;;;;16.43;74.41;99990.22;5034209;28;20053;-65
2021/08/04 03:56:39;;;;;;;14.80;12.15;;;;;;;16.39;74.50;99994.94;5036331;28;20049;-65
2021/08/04 03:59:08;;;;;;;15.05;10.93;;;;;;;16.37;74.50;100002.91;5036456;28;20053;-65
2021/08/04 04:01:36;;;;;;;13.38;10.90;;;;;;;16.36;74.44;99995.69;5036405;28;20053;-65
2021/08/04 04:04:04;;;;;;;15.43;10.95;;;;;;;16.31;74.38;99999.56;5036481;28;20049;-65
2021/08/04 04:06:31;;;;;;;14.63;10.45;;;;;;;16.24;74.68;100005.84;5035950;28;20049;-65
2021/08/04 04:08:58;;;;;;;16.50;11.73;;;;;;;16.18;74.80;100007.28;5036825;28;20061;-65
2021/08/04 04:11:26;;;;;;;17.08;12.18;;;;;;;16.06;75.28;100001.75;5036020;28;20491;-65
2021/08/04 04:13:53;;;;;;;21.40;13.15;;;;;;;16.09;75.08;100009.47;5036001;28;20045;-65
2021/08/04 04:16:22;;;;;;;20.60;14.65;;;;;;;16.09;75.14;100014.28;5036111;28;20057;-65
2021/08/04 04:18:50;;;;;;;21.90;14.38;;;;;;;16.06;75.25;100015.81;5036093;28;20510;-66
2021/08/04 04:21:17;;;;;;;20.73;13.65;;;;;;;16.03;75.35;100019.38;5035866;28;20064;-66
2021/08/04 04:23:45;;;;;;;19.38;13.80;;;;;;;16.01;75.72;100025.34;5036079;28;20068;-65
2021/08/04 04:26:12;;;;;;;20.83;12.38;;;;;;;16.10;75.41;100027.16;5035690;28;20050;-65
2021/08/04 04:28:42;;;;;;;15.65;11.60;;;;;;;16.09;75.53;100031.16;5036264;28;20054;-65
2021/08/04 04:31:10;;;;;;;15.70;10.18;;;;;;;16.13;75.67;100029.25;5035915;28;20054;-65
2021/08/04 04:33:41;;;;;;;14.05;11.13;;;;;;;16.13;75.30;100026.44;5035787;28;20049;-66
2021/08/04 04:36:09;;;;;;;17.60;11.18;;;;;;;16.12;75.24;100024.78;5035505;28;20061;-66
2021/08/04 04:38:37;;;;;;;17.58;11.25;;;;;;;16.11;75.09;100032.41;5035285;28;20054;-66
2021/08/04 04:41:04;;;;;;;13.98;11.50;;;;;;;16.11;75.10;100031.59;5035505;28;20057;-66
2021/08/04 04:43:36;;;;;;;16.98;12.13;;;;;;;16.17;75.00;100028.16;5035426;28;20049;-66
2021/08/04 04:46:03;;;;;;;17.75;12.25;;;;;;;16.16;74.65;100032.13;5035764;28;20053;-66
2021/08/04 04:48:31;;;;;;;18.08;12.77;;;;;;;16.11;74.91;100032.41;5035281;28;20071;-66
2021/08/04 04:50:59;;;;;;;16.52;12.50;;;;;;;15.98;75.57;100034.50;5035289;28;20064;-66
2021/08/04 04:53:27;;;;;;;14.37;11.67;;;;;;;16.09;75.30;100040.38;5035139;28;20065;-66
2021/08/04 04:55:54;;;;;;;18.23;12.88;;;;;;;16.16;75.05;100034.94;5035135;28;20050;-66
2021/08/04 04:58:22;;;;;;;18.95;12.93;;;;;;;16.22;74.71;100039.09;5035304;28;20056;-66
2021/08/04 05:00:49;;;;;;;16.50;12.63;;;;;;;16.31;74.79;100043.72;5035361;28;20509;-66
2021/08/04 05:03:17;;;;;;;18.52;12.07;;;;;;;16.32;74.91;100049.00;5035006;28;20403;-66
2021/08/04 05:05:44;;;;;;;19.88;12.95;;;;;;;16.37;74.33;100047.91;5034200;28;20053;-66
2021/08/04 05:08:13;;;;;;;13.38;10.93;;;;;;;16.31;74.82;100052.97;5035155;28;20061;-66
2021/08/04 05:10:44;;;;;;;13.80;11.68;;;;;;;16.44;74.59;100048.91;5035361;28;20049;-66
2021/08/04 05:13:11;;;;;;;18.08;12.55;;;;;;;16.54;74.36;100046.69;5035016;28;20056;-66
2021/08/04 05:15:39;;;;;;;15.20;12.48;;;;;;;16.62;73.88;100043.69;5034920;28;20049;-66
2021/08/04 05:18:06;;;;;;;14.50;12.10;;;;;;;16.70;73.44;100039.03;5034990;28;20060;-66
2021/08/04 05:20:33;;;;;;;14.15;11.50;;;;;;;16.77;73.24;100032.75;5034442;28;20050;-66
2021/08/04 05:23:01;;;;;;;15.60;12.82;;;;;;;16.82;73.22;100040.97;5034474;28;20061;-66
2021/08/04 05:25:30;;;;;;;17.17;12.20;;;;;;;16.85;73.75;100045.84;5034572;28;20057;-66
2021/08/04 05:27:57;;;;;;;14.57;12.10;;;;;;;16.90;73.33;100042.72;5034747;28;20049;-65
2021/08/04 05:30:24;;;;;;;16.88;12.80;;;;;;;16.85;73.74;100048.66;5034622;28;20060;-65
2021/08/04 05:32:52;;;;;;;17.10;13.55;;;;;;;16.70;74.35;100049.50;5034716;28;20072;-65
2021/08/04 05:35:19;;;;;;;14.85;12.55;;;;;;;16.91;73.78;100052.81;5034107;28;20061;-65
2021/08/04 05:37:47;;;;;;;14.80;12.63;;;;;;;17.11;73.37;100061.25;5034272;28;20061;-65
2021/08/04 05:40:15;;;;;;;15.13;11.68;;;;;;;17.25;72.80;100058.75;5034528;28;20057;-65
2021/08/04 05:42:44;;;;;;;14.60;12.10;;;;;;;17.34;72.22;100067.78;5034626;28;20053;-65
2021/08/04 05:45:11;;;;;;;16.15;12.93;;;;;;;17.37;72.02;100067.06;5034686;28;20045;-65
2021/08/04 05:47:39;;;;;;;13.35;11.20;;;;;;;17.56;71.65;100062.63;5033872;28;20483;-65
2021/08/04 05:50:08;;;;;;;19.42;11.15;;;;;;;17.63;71.35;100057.09;5034498;28;20065;-65
2021/08/04 05:52:35;;;;;;;18.33;13.03;;;;;;;17.54;71.52;100059.34;5034083;28;20403;-65
2021/08/04 05:55:04;;;;;;;20.73;12.88;;;;;;;17.70;71.24;100053.59;5034509;28;20053;-66
2021/08/04 05:57:32;;;;;;;15.80;12.80;;;;;;;17.78;71.27;100058.19;5033957;28;20053;-66
2021/08/04 06:00:00;;;;;;;18.65;11.93;;;;;;;18.12;70.30;100048.00;5034060;28;20057;-66
2021/08/04 06:02:29;;;;;;;13.98;11.35;;;;;;;18.39;69.46;100060.09;5033919;28;20053;-65
2021/08/04 06:04:56;;;;;;;21.38;13.95;;;;;;;18.35;69.28;100058.44;5033837;28;20056;-65
2021/08/04 06:07:24;;;;;;;15.57;11.90;;;;;;;18.59;68.79;100052.38;5033721;28;20061;-65
2021/08/04 06:09:51;;;;;;;13.20;11.80;;;;;;;18.75;68.16;100054.22;5034122;28;20066;-65
2021/08/04 06:12:19;;;;;;;14.00;11.70;;;;;;;18.51;68.83;100050.63;5033802;28;20060;-65
2021/08/04 06:14:46;;;;;;;15.55;12.00;;;;;;;18.74;67.91;100046.97;5033823;28;20049;-65
2021/08/04 06:17:15;;;;;;;16.08;12.90;;;;;;;18.95;67.26;100058.56;5032787;28;20057;-65
2021/08/04 06:19:42;;;;;;;14.40;12.93;;;;;;;19.03;67.10;100043.38;5033619;28;20049;-65
2021/08/04 06:22:10;;;;;;;15.32;13.63;;;;;;;18.95;67.70;100052.13;5033650;28;20410;-65
2021/08/04 06:24:37;;;;;;;16.77;14.88;;;;;;;18.96;66.76;100051.75;5033459;28;20406;-65
2021/08/04 06:27:05;;;;;;;16.42;13.82;;;;;;;18.88;66.79;100058.50;5033969;28;20061;-65
2021/08/04 06:29:32;;;;;;;17.83;14.98;;;;;;;18.96;66.76;100057.41;5033725;28;20058;-65
2021/08/04 06:32:00;;;;;;;15.82;14.23;;;;;;;19.03;66.68;100062.31;5033634;28;20060;-65
2021/08/04 06:34:29;;;;;;;15.15;13.65;;;;;;;19.18;66.45;100061.31;5033613;28;20053;-65
2021/08/04 06:36:56;;;;;;;16.27;14.10;;;;;;;19.33;65.58;100067.16;5033391;28;20502;-65
2021/08/04 06:39:23;;;;;;;16.95;14.45;;;;;;;19.32;66.22;100051.38;5033477;28;20057;-65
2021/08/04 06:41:51;;;;;;;15.88;13.93;;;;;;;19.40;65.60;100062.41;5033123;28;20054;-65
2021/08/04 06:44:18;;;;;;;15.27;13.77;;;;;;;19.36;66.03;100055.06;5033438;28;20053;-65
2021/08/04 06:46:45;;;;;;;15.60;14.00;;;;;;;19.52;65.62;100058.50;5033227;28;20065;-65
2021/08/04 06:49:13;;;;;;;16.13;14.43;;;;;;;19.64;65.17;100054.59;5033680;28;20049;-65
2021/08/04 06:51:41;;;;;;;16.65;15.02;;;;;;;19.75;65.03;100063.22;5033059;28;20509;-65
2021/08/04 06:54:09;;;;;;;17.88;16.05;;;;;;;19.99;64.68;100065.50;5033285;28;20061;-65
2021/08/04 06:56:36;;;;;;;18.17;16.38;;;;;;;19.90;64.15;100059.34;5032886;28;20064;-65
2021/08/04 06:59:04;;;;;;;17.08;15.43;;;;;;;20.15;63.38;100062.41;5033055;28;20053;-65
2021/08/04 07:01:31;;;;;;;17.27;15.57;;;;;;;20.26;62.64;100063.34;5032563;28;20056;-65
2021/08/04 07:03:58;;;;;;;16.35;14.75;;;;;;;20.36;62.27;100061.78;5033077;28;20046;-65
2021/08/04 07:06:28;;;;;;;18.95;16.92;;;;;;;20.49;62.47;100065.13;5032683;28;20045;-65
2021/08/04 07:08:57;;;;;;;18.95;16.95;;;;;;;20.75;61.40;100066.19;5033113;28;20056;-65
2021/08/04 07:11:25;;;;;;;17.92;16.10;;;;;;;20.94;60.81;100074.38;5032916;28;20474;-65
2021/08/04 07:13:52;;;;;;;19.92;17.83;;;;;;;21.11;59.79;100072.06;5033031;28;20053;-65
2021/08/04 07:16:20;;;;;;;20.02;18.08;;;;;;;21.24;59.17;100073.34;5032371;28;20057;-65
2021/08/04 07:18:47;;;;;;;18.52;16.73;;;;;;;21.52;58.18;100075.50;5032798;28;20053;-65
2021/08/04 07:21:14;;;;;;;20.40;18.40;;;;;;;21.82;56.90;100078.03;5032569;28;20056;-65
2021/08/04 07:23:46;;;;;;;20.00;18.02;;;;;;;21.60;57.91;100077.16;5032623;28;20073;-65
2021/08/04 07:26:15;;;;;;;18.65;16.85;;;;;;;21.65;57.63;100075.97;5032431;28;20493;-65
2021/08/04 07:28:43;;;;;;;;;;;;;;;21.67;58.14;100077.19;5032633;28;20061;-65
2021/08/04 07:31:10;;;;;;;18.55;15.93;;;;;;;21.91;57.20;100074.03;5032628;28;19921;-65
2021/08/04 07:33:38;;;;;;;19.20;17.20;;;;;;;22.10;57.00;100067.97;5032389;28;20064;-65
2021/08/04 07:36:06;;;;;;;17.92;16.08;;;;;;;22.47;56.33;100072.50;5032403;28;20444;-65
2021/08/04 07:38:33;;;;;;;19.08;16.98;;;;;;;22.52;55.10;100074.91;5031972;28;20053;-65
2021/08/04 07:41:01;;;;;;;19.67;17.83;;;;;;;22.53;54.29;100070.03;5032098;28;20061;-65
2021/08/04 07:43:30;;;;;;;19.33;17.40;;;;;;;22.76;54.38;100075.28;5031948;28;20060;-65
2021/08/04 07:45:57;;;;;;;19.40;17.15;;;;;;;23.16;52.55;100067.53;5032638;28;20046;-65
2021/08/04 07:48:25;;;;;;;17.40;15.60;;;;;;;23.85;50.58;100072.53;5031883;28;20502;-65
2021/08/04 07:50:52;;;;;;;17.85;15.85;;;;;;;23.81;51.31;100068.91;5032251;28;20410;-65
2021/08/04 07:53:19;;;;;;;17.63;15.85;;;;;;;23.84;50.42;100068.06;5032261;28;20054;-65
2021/08/04 07:55:46;;;;;;;18.55;16.67;;;;;;;23.86;49.94;100065.63;5031863;28;20395;-65
2021/08/04 07:58:14;;;;;;;16.77;15.23;;;;;;;23.93;49.82;100067.59;5032337;28;20057;-65
2021/08/04 08:00:43;;;;;;;17.65;15.95;;;;;;;24.27;49.34;100067.78;5032038;28;20053;-65
2021/08/04 08:03:10;;;;;;;17.90;16.10;;;;;;;24.54;48.95;100061.47;5032323;28;20057;-65
2021/08/04 08:05:37;;;;;;;17.55;15.75;;;;;;;24.70;48.14;100067.44;5031654;28;20050;-65
2021/08/04 08:08:06;;;;;;;18.67;16.75;;;;;;;24.99;46.63;100070.00;5031654;28;20057;-65
2021/08/04 08:10:36;;;;;;;17.47;15.87;;;;;;;25.19;46.51;100067.34;5031613;28;20411;-65
2021/08/04 08:13:04;;;;;;;17.10;15.27;;;;;;;25.46;46.12;100070.31;5032152;28;20057;-65
2021/08/04 08:15:32;;;;;;;17.67;15.87;;;;;;;25.48;46.27;100064.19;5031875;28;20050;-65
2021/08/04 08:18:06;;;;;;;17.38;15.77;;;;;;;26.00;44.56;100065.94;5031805;28;20507;-65
2021/08/04 08:20:33;;;;;;;17.25;15.45;;;;;;;26.43;43.46;100070.97;5031892;28;20049;-65
2021/08/04 08:23:01;;;;;;;17.05;15.40;;;;;;;26.84;42.77;100059.25;5032139;28;20470;-65
2021/08/04 08:25:31;;;;;;;18.05;16.15;;;;;;;27.09;41.52;100061.66;5031581;28;20487;-65
2021/08/04 08:27:59;;;;;;;16.45;15.00;;;;;;;27.42;41.50;100050.38;5031899;28;20069;-65
2021/08/04 08:30:27;;;;;;;17.02;15.23;;;;;;;28.08;40.34;100056.31;5031857;28;20049;-65
2021/08/04 08:32:54;;;;;;;18.00;16.23;;;;;;;28.39;37.95;100053.94;5032060;28;20057;-65
2021/08/04 08:35:23;;;;;;;17.13;15.48;;;;;;;28.59;38.45;100050.97;5032059;28;20402;-65
2021/08/04 08:37:51;;;;;;;15.77;14.38;;;;;;;29.09;38.43;100049.63;5031433;28;20061;-65
2021/08/04 08:40:19;;;;;;;16.45;14.90;;;;;;;29.39;36.61;100049.66;5031874;28;20049;-65
2021/08/04 08:42:47;;;;;;;15.90;14.25;;;;;;;30.31;35.56;100048.06;5035418;28;20386;-65
2021/08/04 08:45:21;;;;;;;15.60;14.10;;;;;;;30.95;34.37;100047.91;5035629;28;20429;-67
2021/08/04 08:47:49;;;;;;;14.27;12.85;;;;;;;31.65;33.23;100036.31;5035093;28;20474;-66
2021/08/04 08:50:21;;;;;;;13.52;12.23;;;;;;;32.50;31.68;100042.75;5035136;28;20053;-66
2021/08/04 08:52:50;;;;;;;11.50;10.30;;;;;;;32.92;30.34;100040.09;5035073;28;20422;-66
2021/08/04 08:55:17;;;;;;;12.30;11.10;;;;;;;33.78;28.45;100040.38;5035439;28;20437;-66
2021/08/04 08:57:45;;;;;;;13.10;11.55;;;;;;;33.75;29.36;100039.28;5035175;28;20046;-66
2021/08/04 09:00:13;;;;;;;11.95;10.85;;;;;;;33.12;29.84;100036.78;5035182;28;20406;-66
2021/08/04 09:02:41;;;;;;;;;;;;;;;32.11;30.08;100039.44;5035282;28;20057;-66
2021/08/04 09:05:13;;;;;;;11.23;10.18;;;;;;;32.15;30.87;100032.25;5034961;28;19928;-65
2021/08/04 09:07:42;;;;;;;11.18;10.20;;;;;;;31.78;32.21;100037.03;5034871;28;20065;-65
2021/08/04 09:10:26;;;;;;;10.48;9.43;;;;;;;31.42;31.19;100031.84;5035391;28;20061;-66
2021/08/04 09:12:55;;;;;;;8.10;7.40;;;;;;;30.92;32.73;100037.38;5034512;28;20064;-66
2021/08/04 09:15:28;;;;;;;8.38;6.88;;;;;;;30.70;32.15;100037.28;5034585;28;20506;-66
2021/08/04 09:18:00;;;;;;;8.70;7.78;;;;;;;30.28;32.43;100041.16;5034420;28;20057;-65
2021/08/04 09:20:28;;;;;;;8.55;7.65;;;;;;;29.95;32.74;100040.59;5034517;28;20407;-65
2021/08/04 09:23:00;;;;;;;7.80;6.60;;;;;;;29.66;34.67;100035.69;5034843;28;20407;-65
2021/08/04 09:25:29;;;;;;;8.82;7.75;;;;;;;29.58;34.00;100039.25;5034756;28;20045;-65
2021/08/04 09:27:58;;;;;;;8.23;7.43;;;;;;;29.25;35.27;100034.47;5034442;28;20060;-65
2021/08/04 09:30:28;;;;;;;8.23;7.43;;;;;;;29.24;34.79;100032.06;5034657;28;20049;-65
2021/08/04 09:33:11;;;;;;;8.55;7.75;;;;;;;29.27;35.41;100031.13;5034906;28;20053;-65
2021/08/04 09:35:46;;;;;;;9.20;8.30;;;;;;;29.07;34.50;100028.41;5033960;28;20050;-65
2021/08/04 09:38:14;;;;;;;8.63;7.82;;;;;;;29.27;34.76;100026.22;5034369;28;20060;-65
2021/08/04 09:40:47;;;;;;;8.82;7.70;;;;;;;29.33;34.88;100030.09;5034315;28;20502;-65
2021/08/04 09:43:24;;;;;;;8.15;7.32;;;;;;;29.57;34.70;100021.22;5034440;28;20056;-65
2021/08/04 09:45:52;;;;;;;8.80;7.90;;;;;;;30.11;34.59;100025.28;5033951;28;20057;-65
2021/08/04 09:48:26;;;;;;;8.48;6.78;;;;;;;31.87;32.02;100018.97;5033972;28;20056;-65
2021/08/04 09:50:54;;;;;;;7.15;6.43;;;;;;;33.61;28.81;100016.84;5033976;28;20460;-65
2021/08/04 09:53:23;;;;;;;;;;;;;;;34.45;26.99;100023.88;5034271;28;20482;-65
2021/08/04 09:56:09;;;;;;;9.02;5.45;;;;;;;34.00;26.68;100026.50;5033855;28;19921;-65
2021/08/04 09:58:39;;;;;;;8.70;5.80;;;;;;;33.79;27.03;100013.91;5033351;28;20049;-65
2021/08/04 10:01:11;;;;;;;6.70;5.18;;;;;;;33.59;26.68;100010.72;5033570;28;20056;-65
2021/08/04 10:03:39;;;;;;;7.65;5.28;;;;;;;33.37;27.86;100011.75;5033777;28;20054;-65
2021/08/04 10:06:06;;;;;;;6.93;5.05;;;;;;;34.24;26.40;100014.19;5033470;28;20050;-65
2021/08/04 10:08:38;;;;;;;6.82;5.22;;;;;;;36.15;24.44;100006.34;5033487;28;20398;-65
2021/08/04 10:11:08;;;;;;;6.57;4.97;;;;;;;37.06;22.53;100010.47;5033679;28;20049;-65
2021/08/04 10:13:36;;;;;;;6.93;5.78;;;;;;;37.26;21.64;100007.53;5033526;28;20506;-65
2021/08/04 10:16:03;;;;;;;6.32;5.18;;;;;;;36.63;23.16;100002.31;5033796;28;20470;-65
2021/08/04 10:18:36;;;;;;;7.15;5.65;;;;;;;35.73;23.76;100015.41;5033996;28;20053;-65
2021/08/04 10:21:08;;;;;;;7.13;5.70;;;;;;;34.91;25.04;100003.31;5033307;28;20060;-65
2021/08/04 10:23:38;;;;;;;5.32;4.82;;;;;;;35.94;26.33;100004.69;5033485;28;20478;-65
2021/08/04 10:26:12;;;;;;;6.53;5.20;;;;;;;36.62;23.73;99997.78;5033400;28;20056;-65
2021/08/04 10:28:41;;;;;;;5.45;4.72;;;;;;;37.10;22.09;100006.03;5033346;28;20057;-65
2021/08/04 10:31:10;;;;;;;5.90;4.78;;;;;;;37.81;21.30;99996.19;5032920;28;20439;-65
2021/08/04 10:33:39;;;;;;;7.10;5.30;;;;;;;39.49;19.12;99996.22;5032917;28;20531;-65
2021/08/04 10:36:09;;;;;;;4.53;4.10;;;;;;;39.44;19.85;99997.00;5033007;28;20391;-65
2021/08/04 10:38:41;;;;;;;6.60;3.83;;;;;;;38.34;21.26;99991.78;5033072;28;20053;-65
2021/08/04 10:41:15;;;;;;;5.07;3.88;;;;;;;38.24;20.34;99988.31;5033126;28;20058;-65
2021/08/04 10:43:45;;;;;;;5.07;4.50;;;;;;;38.29;20.61;99984.63;5032967;28;20057;-65
2021/08/04 10:46:41;;;;;;;5.88;4.60;;;;;;;37.35;21.78;99983.34;5032966;28;20057;-65
2021/08/04 10:49:24;;;;;;;5.28;4.78;;;;;;;39.21;19.93;99999.06;5033162;28;20064;-65
2021/08/04 10:52:13;;;;;;;7.47;4.43;;;;;;;41.09;17.74;99987.38;5032478;28;20049;-65
2021/08/04 10:55:19;;;;;;;4.57;4.15;;;;;;;40.49;18.79;99987.91;5032622;28;20056;-65
2021/08/04 10:58:18;;;;;;;6.90;4.78;;;;;;;42.78;16.76;99976.25;5032788;28;20060;-65
2021/08/04 11:00:46;;;;;;;4.50;4.10;;;;;;;44.01;15.84;99980.75;5032375;28;20064;-65
2021/08/04 11:03:56;;;;;;;5.10;4.20;;;;;;;44.91;13.99;99984.88;5031848;28;20057;-65
2021/08/04 11:06:23;;;;;;;4.97;4.45;;;;;;;44.95;14.05;99989.03;5032518;28;20049;-65
2021/08/04 11:09:24;;;;;;;4.40;4.10;;;;;;;45.43;13.93;99977.25;5032305;28;20057;-65
2021/08/04 11:11:55;;;;;;;5.93;4.32;;;;;;;45.81;12.89;99976.84;5032660;28;20049;-65
2021/08/04 11:14:49;;;;;;;4.07;3.67;;;;;;;45.74;13.84;99966.59;5032743;28;20064;-65
2021/08/04 11:17:18;;;;;;;4.22;3.70;;;;;;;45.73;12.34;99967.16;5022586;28;20057;-65
2021/08/04 11:20:12;;;;;;;4.90;3.50;;;;;;;45.33;13.88;99979.88;5032402;28;20483;-65
2021/08/04 11:22:46;;;;;;;3.90;3.60;;;;;;;45.10;13.34;99979.59;5032269;28;20065;-65
2021/08/04 11:25:24;;;;;;;4.85;3.30;;;;;;;45.75;12.69;99964.41;5032150;28;20056;-65
2021/08/04 11:28:11;;;;;;;3.72;3.42;;;;;;;46.05;11.75;99957.22;5031862;28;20382;-65